Latest Weather Observations for Hartz Mountains

IDT60801

Issued at 6:01 pm EDT Sunday 1 February 2015 (issued every 30 minutes, with the page automatically refreshed every 10 minutes)

About weather observations | Map of weather stations | Latest weather observations for TAS | Other Formats
Station Details ID: 094191 Name: HARTZ MOUNTAIN (KEOGHS PIMPLE) Lat: -43.20 Lon: 146.77 Height: 831.0 m
Data from the previous 72 hours. | See also: Recent months at Hartz Mountains
Date/Time
EDT
Temp
°C
App
Temp
°C
Dew
Point
Rel
Hum
%
Delta-T
°C
Wind Press
QNH
hPa
Press
MSL
hPa
Rain
since 9 am
mm
Dir
 
Spd
km/h
Gust
km/h
Spd
kts
Gust
kts
01/06:00pm 7.7 4.6 5.7 87 0.9 SSW 11 19 6 10 - - 0.2
01/05:30pm 8.3 4.9 6.1 86 1.1 SSW 13 20 7 11 - - 0.2
01/05:00pm 8.3 5.3 5.9 85 1.1 SSW 11 17 6 9 - - 0.2
01/04:30pm 8.5 4.7 6.0 84 1.2 SSE 15 26 8 14 - - 0.2
01/04:00pm 8.2 4.3 5.3 82 1.4 SSW 15 24 8 13 - - 0.2
01/03:30pm 8.3 3.7 6.6 89 0.8 SSW 20 32 11 17 - - 0.2
01/03:00pm 7.6 2.9 6.1 90 0.7 SW 20 30 11 16 - - 0.2
01/02:30pm 7.2 1.7 5.7 90 0.7 SW 24 32 13 17 - - 0.2
01/02:00pm 7.0 2.2 5.6 91 0.7 SW 20 30 11 16 - - 0.2
01/01:30pm 7.8 4.5 6.4 91 0.7 SW 13 20 7 11 - - 0.2
01/01:00pm 7.3 3.1 5.6 89 0.8 SW 17 28 9 15 - - 0.2
01/12:30pm 7.8 4.6 6.7 93 0.5 SSW 13 20 7 11 - - 0.2
01/12:00pm 7.1 4.2 6.4 95 0.3 SSW 11 15 6 8 - - 0.2
01/11:30am 6.8 3.4 6.1 95 0.3 SSW 13 24 7 13 - - 0.2
01/11:00am 6.9 2.8 6.2 95 0.3 SSW 17 26 9 14 - - 0.2
01/10:30am 7.1 4.9 6.4 95 0.3 SSW 7 15 4 8 - - 0.2
01/10:00am 6.5 3.1 6.1 97 0.2 S 13 20 7 11 - - 0.2
01/09:30am 6.0 2.1 5.4 96 0.3 SSE 15 24 8 13 - - 0.0
01/09:00am 6.0 2.2 5.6 97 0.2 S 15 28 8 15 - - 1.6
01/08:30am 5.6 1.6 5.0 96 0.3 S 15 24 8 13 - - 1.6
01/08:00am 5.8 4.0 5.4 97 0.2 SW 4 13 2 7 - - 1.6
01/07:30am 5.9 3.7 5.5 97 0.2 NW 6 11 3 6 - - 1.4
01/07:00am 5.8 4.4 5.4 97 0.2 ESE 2 7 1 4 - - 1.4
01/06:30am 5.6 3.2 5.2 97 0.2 SE 7 17 4 9 - - 1.4
01/06:00am 5.6 2.4 5.0 96 0.3 SSE 11 20 6 11 - - 1.2
01/05:30am 6.0 4.2 5.6 97 0.2 SE 4 13 2 7 - - 1.2
01/05:00am 6.0 2.9 5.4 96 0.3 SSE 11 28 6 15 - - 1.0
01/04:30am 6.2 4.1 5.6 96 0.3 SSW 6 22 3 12 - - 0.8
01/04:00am 6.1 1.3 5.5 96 0.3 SSW 20 33 11 18 - - 0.8
01/03:30am 6.1 1.9 5.5 96 0.3 S 17 32 9 17 - - 0.8
01/03:00am 6.2 2.4 5.6 96 0.3 S 15 30 8 16 - - 0.8
01/02:30am 6.3 2.9 5.7 96 0.3 S 13 26 7 14 - - 0.6
01/02:00am 6.4 1.8 5.8 96 0.3 S 19 35 10 19 - - 0.6
01/01:30am 6.4 1.6 5.8 96 0.3 SSW 20 43 11 23 - - 0.6
01/01:00am 6.7 2.6 6.0 95 0.3 S 17 30 9 16 - - 0.6
01/12:30am 6.8 2.7 6.2 96 0.3 SSW 17 28 9 15 - - 0.6
01/12:00am 7.1 3.1 6.5 96 0.3 SSW 17 30 9 16 - - 0.6
 
Date/Time
EDT
Temp
°C
App
Temp
°C
Dew
Point
Rel
Hum
%
Delta-T
°C
Wind Press
QNH
hPa
Press
MSL
hPa
Rain
since 9 am
mm
Dir
 
Spd
km/h
Gust
km/h
Spd
kts
Gust
kts
31/11:30pm 7.1 3.9 6.7 97 0.2 S 13 22 7 12 - - 0.6
31/11:00pm 7.4 5.6 7.0 97 0.2 WNW 6 13 3 7 - - 0.6
31/10:30pm 7.4 5.4 7.0 97 0.2 S 7 15 4 8 - - 0.6
31/10:00pm 7.5 5.7 7.1 97 0.2 NNW 6 15 3 8 - - 0.4
31/09:30pm 7.5 5.7 7.1 97 0.2 WNW 6 11 3 6 - - 0.4
31/09:00pm 7.6 5.2 7.2 97 0.2 SSW 9 20 5 11 - - 0.4
31/08:30pm 7.7 3.3 7.3 97 0.2 S 20 35 11 19 - - 0.4
31/08:00pm 7.9 2.8 7.5 97 0.2 S 24 37 13 20 - - 0.4
31/07:30pm 8.6 4.5 8.0 96 0.3 S 19 28 10 15 - - 0.4
31/07:00pm 8.6 3.6 8.2 97 0.2 S 24 30 13 16 - - 0.4
31/06:30pm 8.5 4.8 7.9 96 0.3 S 17 24 9 13 - - 0.4
31/06:00pm 9.1 6.3 8.5 96 0.3 SSW 13 22 7 12 - - 0.4
31/05:30pm 9.3 6.9 8.7 96 0.3 SW 11 26 6 14 - - 0.4
31/05:00pm 9.1 5.9 8.5 96 0.3 SSW 15 28 8 15 - - 0.4
31/04:30pm 9.2 6.4 8.6 96 0.3 SSW 13 26 7 14 - - 0.4
31/04:00pm 9.5 6.7 8.7 95 0.4 S 13 26 7 14 - - 0.4
31/03:30pm 9.9 6.5 9.3 96 0.3 SSW 17 26 9 14 - - 0.4
31/03:00pm 9.6 6.9 9.0 96 0.3 SSW 13 20 7 11 - - 0.0
31/02:30pm 9.2 4.3 8.4 95 0.4 S 24 35 13 19 - - 0.0
31/02:00pm 9.6 6.2 9.0 96 0.3 SSW 17 33 9 18 - - 0.0
31/01:30pm 9.4 5.3 8.6 95 0.4 S 20 33 11 18 - - 0.0
31/01:00pm 9.9 6.5 9.1 95 0.4 S 17 30 9 16 - - 0.0
31/12:30pm 9.0 4.5 8.4 96 0.3 SSW 22 33 12 18 - - 0.0
31/12:00pm 8.7 5.0 8.1 96 0.3 SSW 17 30 9 16 - - 0.0
31/11:30am 8.9 4.0 8.3 96 0.3 SSW 24 33 13 18 - - 0.0
31/11:00am 8.6 2.4 7.8 95 0.4 SSW 30 43 16 23 - - 0.0
31/10:30am 8.9 3.5 8.1 95 0.4 SSW 26 37 14 20 - - 0.0
31/10:00am 8.7 4.4 7.9 95 0.4 S 20 32 11 17 - - 0.0
31/09:30am 8.6 3.5 7.8 95 0.4 S 24 33 13 18 - - 0.0
31/09:00am 8.3 3.9 7.5 95 0.4 SSW 20 30 11 16 - - 4.2
31/08:30am 8.1 3.7 7.3 95 0.4 SSW 20 32 11 17 - - 4.2
31/08:00am 8.2 4.0 7.6 96 0.3 S 19 32 10 17 - - 4.2
31/07:30am 8.1 4.3 7.5 96 0.3 SSW 17 32 9 17 - - 4.2
31/07:00am 7.9 3.4 7.1 95 0.4 S 20 33 11 18 - - 4.2
31/06:30am 7.7 2.8 7.0 95 0.3 S 22 35 12 19 - - 4.2
31/06:00am 7.6 2.3 6.9 95 0.3 S 24 39 13 21 - - 4.2
31/05:30am 7.4 2.5 6.7 95 0.3 S 22 33 12 18 - - 4.2
31/05:00am 7.3 2.4 6.7 96 0.3 S 22 37 12 20 - - 4.2
31/04:30am 7.3 2.7 6.7 96 0.3 S 20 32 11 17 - - 4.2
31/04:00am 7.3 2.4 6.7 96 0.3 SSW 22 35 12 19 - - 4.2
31/03:30am 7.3 1.6 6.7 96 0.3 S 26 37 14 20 - - 4.2
31/03:00am 7.2 1.9 6.6 96 0.3 S 24 39 13 21 - - 4.2
31/02:30am 7.1 2.5 6.5 96 0.3 S 20 35 11 19 - - 4.2
31/02:00am 7.1 2.7 6.5 96 0.3 SSW 19 28 10 15 - - 4.2
31/01:30am 7.1 2.7 6.7 97 0.2 S 19 28 10 15 - - 4.2
31/01:00am 7.1 2.2 6.7 97 0.2 S 22 33 12 18 - - 4.2
31/12:30am 6.9 2.5 6.6 98 0.1 S 19 28 10 15 - - 4.2
31/12:00am 6.7 2.2 6.3 97 0.2 SSE 19 32 10 17 - - 4.2
 
Date/Time
EDT
Temp
°C
App
Temp
°C
Dew
Point
Rel
Hum
%
Delta-T
°C
Wind Press
QNH
hPa
Press
MSL
hPa
Rain
since 9 am
mm
Dir
 
Spd
km/h
Gust
km/h
Spd
kts
Gust
kts
30/11:30pm 6.6 1.9 6.0 96 0.3 S 20 32 11 17 - - 4.2
30/11:00pm 6.4 1.6 5.7 95 0.3 S 20 33 11 18 - - 4.2
30/10:30pm 6.6 2.4 5.9 95 0.3 SSE 17 30 9 16 - - 4.2
30/10:00pm 6.5 2.0 6.1 97 0.2 S 19 28 10 15 - - 4.2
30/09:30pm 6.5 2.7 5.9 96 0.3 SSE 15 22 8 12 - - 4.2
30/09:00pm 6.5 2.0 5.9 96 0.3 SSE 19 28 10 15 - - 4.2
30/08:30pm 7.1 3.5 6.7 97 0.2 SSE 15 19 8 10 - - 4.2
30/08:00pm 7.2 3.2 6.8 97 0.2 SSE 17 24 9 13 - - 4.2
30/07:30pm 7.3 3.3 6.7 96 0.3 SSE 17 28 9 15 - - 4.0
30/07:00pm 7.8 5.1 7.4 97 0.2 SSE 11 20 6 11 - - 4.0
30/06:30pm 8.1 3.4 7.8 98 0.1 SSE 22 35 12 19 - - 4.0
30/06:00pm 7.7 2.5 7.3 97 0.2 SSE 24 39 13 21 - - 4.0
30/05:30pm 7.8 3.4 7.4 97 0.2 SSE 20 32 11 17 - - 3.8
30/05:00pm 8.1 3.0 7.8 98 0.1 SE 24 37 13 20 - - 3.8
30/04:30pm 7.9 3.7 7.6 98 0.1 SSE 19 30 10 16 - - 3.6
30/04:00pm 7.9 3.5 7.6 98 0.1 SE 20 35 11 19 - - 3.6
30/03:48pm 8.0 2.1 7.7 98 0.1 SSE 28 46 15 25 - - 3.6
30/03:30pm 7.7 2.9 7.3 97 0.2 SE 22 37 12 20 - - 3.6
30/03:00pm 8.7 4.2 8.4 98 0.2 SSE 22 37 12 20 - - 3.4
30/02:30pm 8.2 3.9 7.8 97 0.2 SE 20 39 11 21 - - 3.4
30/02:00pm 8.7 3.8 8.3 97 0.2 SE 24 35 13 19 - - 3.2
30/01:30pm 8.7 3.8 8.4 98 0.2 SE 24 39 13 21 - - 3.0
30/01:00pm 8.6 3.7 8.5 99 0.1 SE 24 43 13 23 - - 2.8
30/12:30pm 8.6 3.3 8.5 99 0.1 SE 26 41 14 22 - - 2.6
30/12:00pm 8.0 2.2 7.9 99 0.0 SE 28 46 15 25 - - 2.2
30/11:52am 7.8 1.9 7.5 98 0.1 SE 28 46 15 25 - - 2.2
30/11:30am 7.8 2.7 7.7 99 0.0 SE 24 41 13 22 - - 1.8
30/11:04am 7.7 1.4 7.6 99 0.0 SE 30 48 16 26 - - 1.4
30/11:00am 7.5 1.2 7.4 99 0.0 SE 30 46 16 25 - - 1.4
30/10:30am 7.7 1.8 7.6 99 0.0 SE 28 46 15 25 - - 1.2
30/10:14am 7.3 1.3 7.2 99 0.0 SE 28 46 15 25 - - 1.2
30/10:00am 7.6 2.5 7.5 99 0.0 SE 24 41 13 22 - - 0.8
30/09:33am 7.6 1.7 7.5 99 0.0 SE 28 48 15 26 - - 0.6
30/09:30am 7.6 2.5 7.5 99 0.0 SE 24 35 13 19 - - 0.6
30/09:00am 7.2 0.4 7.1 99 0.0 SE 32 52 17 28 - - 10.0
30/08:30am 7.0 0.6 6.9 99 0.0 SE 30 48 16 26 - - 9.8
30/08:00am 6.5 0.4 6.4 99 0.0 SSE 28 48 15 26 - - 9.4
30/07:30am 6.4 0.2 6.3 99 0.0 SE 28 46 15 25 - - 9.2
30/07:25am 6.3 0.1 6.2 99 0.0 SE 28 46 15 25 - - 9.2
30/07:00am 6.6 1.2 6.5 99 0.0 SE 24 39 13 21 - - 9.0
30/06:30am 6.4 0.6 6.3 99 0.0 SE 26 48 14 26 - - 8.2
30/06:00am 6.6 1.6 6.5 99 0.0 SE 22 39 12 21 - - 7.4
30/05:30am 6.4 1.4 6.3 99 0.0 SE 22 35 12 19 - - 6.6
30/05:00am 6.3 -0.3 6.2 99 0.0 SE 30 46 16 25 - - 6.2
30/04:39am 6.4 0.2 6.3 99 0.0 SE 28 50 15 27 - - 6.2
30/04:30am 6.3 0.1 6.2 99 0.0 SE 28 43 15 23 - - 6.0
30/04:00am 6.2 0.0 6.1 99 0.0 SE 28 48 15 26 - - 5.8
30/03:30am 6.2 0.0 6.1 99 0.0 SE 28 46 15 25 - - 5.6
30/03:00am 5.8 0.6 5.7 99 0.0 ESE 22 35 12 19 - - 5.4
30/02:30am 5.4 1.1 5.3 99 0.0 ESE 17 28 9 15 - - 4.8
30/02:00am 5.1 0.4 5.0 99 0.0 SE 19 26 10 14 - - 3.6
30/01:30am 5.1 -0.2 5.0 99 0.0 ESE 22 35 12 19 - - 3.4
30/01:00am 5.2 -0.5 5.1 99 0.0 ESE 24 37 13 20 - - 3.4
30/12:30am 5.1 -2.1 5.0 99 0.0 SE 32 59 17 32 - - 3.4
30/12:28am 5.1 -1.3 5.0 99 0.0 ESE 28 59 15 32 - - 3.4
30/12:00am 4.7 -0.7 4.6 99 0.0 ESE 22 33 12 18 - - 3.2
 
Date/Time
EDT
Temp
°C
App
Temp
°C
Dew
Point
Rel
Hum
%
Delta-T
°C
Wind Press
QNH
hPa
Press
MSL
hPa
Rain
since 9 am
mm
Dir
 
Spd
km/h
Gust
km/h
Spd
kts
Gust
kts
29/11:30pm 4.9 -1.2 4.8 99 0.0 SE 26 39 14 21 - - 3.2
29/11:07pm 5.2 -1.2 5.1 99 0.0 SE 28 46 15 25 - - 3.2
29/11:00pm 5.3 0.0 5.2 99 0.0 SE 22 41 12 22 - - 3.2
29/10:30pm 5.1 -2.1 5.0 99 0.0 SE 32 44 17 24 - - 3.0
29/10:00pm 4.9 -2.0 4.8 99 0.0 SE 30 44 16 24 - - 2.8
29/09:54pm 5.0 -1.5 4.9 99 0.0 SE 28 54 15 29 - - 2.8
29/09:30pm 5.2 0.5 5.1 99 0.0 ESE 19 33 10 18 - - 2.2
29/09:00pm 5.2 -0.9 4.9 98 0.1 ESE 26 35 14 19 - - 2.0
29/08:30pm 5.3 -1.9 5.0 98 0.1 SE 32 43 17 23 - - 1.8
29/08:10pm 4.9 -2.0 4.6 98 0.1 SE 30 48 16 26 - - 1.6
29/08:00pm 5.2 -1.3 4.9 98 0.1 SE 28 43 15 23 - - 1.4
29/07:30pm 5.3 -1.1 5.0 98 0.1 SE 28 43 15 23 - - 1.4
29/07:00pm 5.6 0.7 5.0 96 0.3 SE 20 32 11 17 - - 0.8
29/06:30pm 5.9 0.3 5.6 98 0.1 SE 24 41 13 22 - - 0.8

Other Formats:

Comma delimited format used in spreadsheet applications
http://www.bom.gov.au/fwo/IDT60801/IDT60801.94977.axf

JavaScript Object Notation format (JSON) in row-major order
http://www.bom.gov.au/fwo/IDT60801/IDT60801.94977.json